createdAt,value
2022-12-15T00:00:26.556Z,78.8
2022-12-15T00:02:26.660Z,79
2022-12-15T00:04:26.623Z,79.3
2022-12-15T00:05:26.481Z,79.3
2022-12-15T00:06:26.550Z,79.1
2022-12-15T00:07:26.478Z,79
2022-12-15T00:10:26.497Z,78.7
2022-12-15T00:11:26.515Z,78.7
2022-12-15T00:12:26.477Z,78.7
2022-12-15T00:13:26.737Z,78.7
2022-12-15T00:14:26.480Z,78.6
2022-12-15T00:15:26.477Z,78.3
2022-12-15T00:18:26.481Z,78.2
2022-12-15T00:19:26.475Z,78.1
2022-12-15T00:20:26.488Z,77.7
2022-12-15T00:21:26.489Z,77.7
2022-12-15T00:23:26.663Z,77.7
2022-12-15T00:25:26.481Z,77.5
2022-12-15T00:26:26.483Z,77.1
2022-12-15T00:27:26.491Z,77.4
2022-12-15T00:30:26.524Z,77.4
2022-12-15T00:31:26.555Z,77.3
2022-12-15T00:32:26.507Z,77.4
2022-12-15T00:33:26.491Z,77.5
2022-12-15T00:34:26.484Z,77.5
2022-12-15T00:35:26.477Z,77.7
2022-12-15T00:38:26.475Z,77.6
2022-12-15T00:39:26.481Z,77.3
2022-12-15T00:40:26.477Z,77.4
2022-12-15T00:43:24.144Z,77.6
2022-12-15T00:44:24.170Z,77.6
2022-12-15T00:45:24.860Z,77.6
2022-12-15T00:46:24.227Z,78
2022-12-15T00:48:24.781Z,78.2
2022-12-15T00:50:24.150Z,77.9
2022-12-15T00:51:24.585Z,77.9
2022-12-15T00:52:24.142Z,77.9
2022-12-15T00:53:24.568Z,77.9
2022-12-15T00:54:24.796Z,78
2022-12-15T00:56:24.152Z,78
2022-12-15T00:57:24.146Z,78.1
2022-12-15T00:58:24.494Z,77.9
2022-12-15T00:59:24.654Z,78.2
2022-12-15T01:00:24.836Z,78.1
2022-12-15T01:03:24.357Z,78
2022-12-15T01:04:24.809Z,78.1
2022-12-15T01:05:24.162Z,78
2022-12-15T01:06:24.157Z,78
2022-12-15T01:07:24.138Z,77.8
2022-12-15T01:09:24.142Z,77.5
2022-12-15T01:11:24.847Z,77.9
2022-12-15T01:12:24.800Z,78.2
2022-12-15T01:13:24.153Z,78
2022-12-15T01:14:24.214Z,78.3
2022-12-15T01:15:24.852Z,78.2
2022-12-15T01:17:24.143Z,78.2
2022-12-15T01:18:24.147Z,78.1
2022-12-15T01:20:24.135Z,78.1
2022-12-15T01:21:25.439Z,78.1
2022-12-15T01:22:24.394Z,78.3
2022-12-15T01:23:24.824Z,77.8
2022-12-15T01:24:24.508Z,77.6
2022-12-15T01:25:24.453Z,77.7
2022-12-15T01:26:24.146Z,77.6
2022-12-15T01:27:24.754Z,77.8
2022-12-15T01:28:24.319Z,77.7
2022-12-15T01:30:24.138Z,78.1
2022-12-15T01:31:24.220Z,78.1
2022-12-15T01:32:24.356Z,78
2022-12-15T01:33:24.141Z,78.1
2022-12-15T01:35:24.721Z,78.4
2022-12-15T01:38:24.145Z,79.1
2022-12-15T01:39:24.140Z,79.2
2022-12-15T01:40:27.681Z,79.2
2022-12-15T01:41:27.698Z,79.1
2022-12-15T01:43:24.160Z,79.3
2022-12-15T01:44:24.926Z,79
2022-12-15T01:45:24.133Z,79.3
2022-12-15T01:46:24.181Z,79.1
2022-12-15T01:47:24.634Z,79.3
2022-12-15T01:48:24.135Z,79
2022-12-15T01:49:24.762Z,78.5
2022-12-15T01:50:24.177Z,78.7
2022-12-15T01:51:24.790Z,78.7
2022-12-15T01:52:24.139Z,78.7
2022-12-15T01:54:24.136Z,78.5
2022-12-15T01:56:24.136Z,78.8
2022-12-15T01:57:24.140Z,78.4
2022-12-15T01:58:24.140Z,78.6
2022-12-15T01:59:24.471Z,78.8
2022-12-15T02:00:24.187Z,78.8
2022-12-15T02:01:24.665Z,78.8
2022-12-15T02:04:24.150Z,78.8
2022-12-15T02:06:24.127Z,78.8
2022-12-15T02:07:24.973Z,78.9
2022-12-15T02:08:24.522Z,78.8
2022-12-15T02:09:24.811Z,79
2022-12-15T02:10:24.135Z,79
2022-12-15T02:11:24.123Z,78.9
2022-12-15T02:12:24.143Z,79
2022-12-15T02:13:24.794Z,78.8
2022-12-15T02:15:24.529Z,78.4
2022-12-15T02:17:24.864Z,78.3
2022-12-15T02:18:24.546Z,78.7
2022-12-15T02:19:24.862Z,78.7
2022-12-15T02:20:24.132Z,78.5
2022-12-15T02:21:24.135Z,78.5
2022-12-15T02:22:24.143Z,78.6
2022-12-15T02:24:24.827Z,78.7
2022-12-15T02:25:24.598Z,79
2022-12-15T02:26:24.135Z,79
2022-12-15T02:28:24.469Z,79.4
2022-12-15T02:29:24.154Z,79.3
2022-12-15T02:30:24.677Z,79.3
2022-12-15T02:31:24.174Z,79.2
2022-12-15T02:32:24.680Z,79.1
2022-12-15T02:33:24.137Z,79.6
2022-12-15T02:34:24.130Z,79.5
2022-12-15T02:36:24.172Z,79.4
2022-12-15T02:37:24.768Z,79.3
2022-12-15T02:38:24.894Z,79.3
2022-12-15T02:39:24.700Z,79.6
2022-12-15T02:40:24.138Z,79.1
2022-12-15T02:41:24.131Z,79.1
2022-12-15T02:42:24.834Z,79.1
2022-12-15T02:44:24.437Z,79.2
2022-12-15T02:45:23.099Z,79.3
2022-12-15T02:49:24.393Z,79.1
2022-12-15T02:50:25.048Z,79.2
2022-12-15T02:51:24.823Z,79.4
2022-12-15T02:52:24.148Z,79.1
2022-12-15T02:53:24.184Z,79.4
2022-12-15T02:54:24.135Z,79.4
2022-12-15T02:55:24.668Z,79.4
2022-12-15T02:57:25.037Z,79
2022-12-15T02:58:24.131Z,79.2
2022-12-15T02:59:24.141Z,79.2
2022-12-15T03:00:24.142Z,79.1
2022-12-15T03:02:24.797Z,78.8
2022-12-15T03:03:24.170Z,78.9
2022-12-15T03:05:24.134Z,79.2
2022-12-15T03:06:24.999Z,79.1
2022-12-15T03:07:23.046Z,79
2022-12-15T03:08:24.137Z,78.9
2022-12-15T03:10:24.772Z,79.4
2022-12-15T03:11:24.144Z,79.2
2022-12-15T03:12:24.141Z,79.2
2022-12-15T03:13:24.753Z,79.2
2022-12-15T03:15:24.136Z,78.9
2022-12-15T03:16:24.209Z,78.8
2022-12-15T03:18:24.466Z,79.1
2022-12-15T03:19:24.612Z,79.2
2022-12-15T03:20:24.133Z,79
2022-12-15T03:21:24.186Z,79.1
2022-12-15T03:23:24.594Z,79.1
2022-12-15T03:24:24.435Z,79.3
2022-12-15T03:25:24.968Z,79.3
2022-12-15T03:27:24.608Z,79.8
2022-12-15T03:29:24.765Z,79.6
2022-12-15T03:30:24.140Z,79.3
2022-12-15T03:31:24.965Z,79.1
2022-12-15T03:32:25.017Z,79.3
2022-12-15T03:33:24.666Z,79.5
2022-12-15T03:34:23.779Z,79.4
2022-12-15T03:37:25.046Z,79.1
2022-12-15T03:40:23.012Z,78.7
2022-12-15T03:41:24.336Z,78.6
2022-12-15T03:42:24.162Z,78.6
2022-12-15T03:44:24.145Z,79.1
2022-12-15T03:45:24.754Z,79.2
2022-12-15T03:46:24.514Z,79.6
2022-12-15T03:47:24.165Z,79.7
2022-12-15T03:48:24.653Z,79.9
2022-12-15T03:50:24.910Z,79.8
2022-12-15T03:52:24.532Z,79.7
2022-12-15T03:53:24.651Z,79.4
2022-12-15T03:54:24.188Z,79.5
2022-12-15T03:55:24.387Z,79.6
2022-12-15T03:56:24.143Z,80.1
2022-12-15T03:58:24.530Z,80
2022-12-15T03:59:24.159Z,80
2022-12-15T04:00:23.030Z,80.1
2022-12-15T04:01:24.827Z,80.1
2022-12-15T04:02:24.432Z,79.8
2022-12-15T04:03:24.872Z,79.8
2022-12-15T04:04:24.650Z,79.7
2022-12-15T04:06:24.586Z,79.8
2022-12-15T04:08:24.455Z,79.7
2022-12-15T04:09:24.806Z,79.9
2022-12-15T04:11:23.017Z,79.6
2022-12-15T04:12:23.024Z,79.8
2022-12-15T04:13:24.156Z,79.8
2022-12-15T04:14:24.597Z,79.5
2022-12-15T04:16:24.250Z,79.9
2022-12-15T04:17:24.515Z,79.8
2022-12-15T04:19:24.147Z,79.8
2022-12-15T04:20:24.184Z,79.5
2022-12-15T04:21:24.496Z,79.6
2022-12-15T04:23:24.811Z,79.3
2022-12-15T04:24:24.672Z,79.2
2022-12-15T04:25:24.639Z,79.7
2022-12-15T04:26:24.562Z,80.2
2022-12-15T04:27:24.696Z,80.4
2022-12-15T04:31:24.335Z,80.8
2022-12-15T04:32:24.958Z,80.5
2022-12-15T04:33:27.648Z,80.2
2022-12-15T04:34:24.376Z,80.1
2022-12-15T04:35:24.134Z,80
2022-12-15T04:38:24.263Z,80
2022-12-15T04:39:24.160Z,80
2022-12-15T04:40:24.783Z,80.1
2022-12-15T04:41:24.144Z,80.3
2022-12-15T04:42:24.142Z,80.3
2022-12-15T04:43:24.154Z,80.2
2022-12-15T04:44:24.258Z,79.9
2022-12-15T04:45:25.088Z,79.9
2022-12-15T04:46:24.214Z,80.1
2022-12-15T04:47:24.139Z,80.1
2022-12-15T04:48:24.434Z,79.9
2022-12-15T04:51:24.373Z,80.6
2022-12-15T04:52:24.132Z,80.2
2022-12-15T04:53:24.143Z,80.3
2022-12-15T04:56:24.173Z,80
2022-12-15T04:59:24.139Z,80
2022-12-15T05:01:24.327Z,79.8
2022-12-15T05:02:24.998Z,80
2022-12-15T05:03:24.532Z,79.8
2022-12-15T05:04:24.257Z,79.7
2022-12-15T05:05:24.960Z,79.5
2022-12-15T05:06:24.818Z,79.4
2022-12-15T05:12:24.655Z,79.4
2022-12-15T05:13:24.596Z,79.3
2022-12-15T05:14:24.137Z,79.3
2022-12-15T05:15:24.275Z,79.9
2022-12-15T05:16:24.268Z,79.6
2022-12-15T05:17:24.591Z,79.4
2022-12-15T05:20:24.716Z,79.3
2022-12-15T05:21:24.567Z,79.5
2022-12-15T05:22:24.153Z,79.5
2022-12-15T05:23:24.649Z,79.3
2022-12-15T05:24:24.554Z,79.3
2022-12-15T05:25:24.295Z,79.3
2022-12-15T05:26:24.151Z,79.1
2022-12-15T05:27:24.182Z,79.1
2022-12-15T05:28:24.278Z,79.2
2022-12-15T05:32:24.547Z,78.9
2022-12-15T05:33:24.138Z,79
2022-12-15T05:34:24.157Z,79.3
2022-12-15T05:35:24.667Z,79.2
2022-12-15T05:36:24.708Z,79.3
2022-12-15T05:37:24.589Z,79.8
2022-12-15T05:40:23.012Z,79.7
2022-12-15T05:41:24.217Z,79.4
2022-12-15T05:42:24.161Z,79.4
2022-12-15T05:44:24.476Z,79.7
2022-12-15T05:45:24.484Z,79.8
2022-12-15T05:46:24.214Z,79.5
2022-12-15T05:47:24.139Z,79.3
2022-12-15T05:48:24.148Z,79.2
2022-12-15T05:49:24.205Z,79.4
2022-12-15T05:50:24.152Z,79
2022-12-15T05:53:24.403Z,78.9
2022-12-15T05:54:24.720Z,78.8
2022-12-15T05:55:24.158Z,78.8
2022-12-15T05:56:24.154Z,79
2022-12-15T05:57:24.161Z,79.2
2022-12-15T05:58:24.439Z,79.2
2022-12-15T05:59:24.137Z,79.3
2022-12-15T06:01:24.539Z,79.1
2022-12-15T06:03:23.015Z,79.9
2022-12-15T06:05:24.376Z,79.8
2022-12-15T06:06:24.911Z,79.6
2022-12-15T06:07:24.716Z,79.3
2022-12-15T06:08:24.152Z,79.2
2022-12-15T06:10:24.145Z,79.6
2022-12-15T06:11:24.135Z,79.7
2022-12-15T06:13:24.144Z,79.7
2022-12-15T06:15:24.545Z,79.5
2022-12-15T06:17:24.143Z,79.8
2022-12-15T06:18:24.251Z,79.3
2022-12-15T06:19:24.636Z,79.4
2022-12-15T06:21:24.134Z,79.4
2022-12-15T06:22:24.137Z,79.1
2022-12-15T06:23:24.250Z,79.1
2022-12-15T06:24:24.812Z,79.3
2022-12-15T06:26:23.014Z,79.2
2022-12-15T06:27:24.138Z,79.3
2022-12-15T06:30:24.822Z,79.6
2022-12-15T06:31:25.590Z,79.3
2022-12-15T06:32:24.162Z,79.5
2022-12-15T06:33:24.808Z,79.3
2022-12-15T06:34:24.141Z,79.5
2022-12-15T06:35:24.528Z,79.8
2022-12-15T06:36:24.144Z,80.1
2022-12-15T06:38:24.360Z,79.9
2022-12-15T06:39:24.169Z,79.9
2022-12-15T06:40:24.894Z,79.8
2022-12-15T06:41:24.845Z,79.9
2022-12-15T06:42:24.142Z,79.7
2022-12-15T06:43:24.144Z,79.9
2022-12-15T06:44:24.926Z,80.1
2022-12-15T06:45:24.763Z,80.4
2022-12-15T06:46:24.208Z,80.2
2022-12-15T06:47:24.287Z,80.3
2022-12-15T06:48:24.879Z,80.2
2022-12-15T06:51:24.137Z,80.1
2022-12-15T06:52:24.152Z,80
2022-12-15T06:53:24.765Z,80.1
2022-12-15T06:54:24.141Z,80.3
2022-12-15T06:55:24.140Z,80.4
2022-12-15T06:56:30.728Z,80.7
2022-12-15T06:59:24.156Z,80.8
2022-12-15T07:00:23.041Z,80.6
2022-12-15T07:01:25.090Z,80.6
2022-12-15T07:02:28.867Z,81.2
2022-12-15T07:03:24.397Z,81.2
2022-12-15T07:04:24.228Z,81.3
2022-12-15T07:05:24.207Z,81.7
2022-12-15T07:06:24.161Z,82.1
2022-12-15T07:07:24.892Z,82.1
2022-12-15T07:08:30.799Z,82.3
2022-12-15T07:09:24.180Z,82.4
2022-12-15T07:12:24.226Z,82.7
2022-12-15T07:14:24.211Z,82.6
2022-12-15T07:15:24.984Z,82.8
2022-12-15T07:16:24.179Z,83.1
2022-12-15T07:17:24.638Z,83.1
2022-12-15T07:18:24.141Z,82.9
2022-12-15T07:19:24.863Z,83.3
2022-12-15T07:20:28.731Z,83.6
2022-12-15T07:21:24.529Z,84
2022-12-15T07:25:24.836Z,83.7
2022-12-15T07:26:24.154Z,83.8
2022-12-15T07:27:24.708Z,83.8
2022-12-15T07:28:26.001Z,83.5
2022-12-15T07:30:24.650Z,84
2022-12-15T07:31:24.681Z,83.9
2022-12-15T07:33:23.002Z,83.8
2022-12-15T07:35:23.008Z,83.5
2022-12-15T07:36:24.981Z,83.8
2022-12-15T07:37:24.591Z,83.7
2022-12-15T07:38:24.149Z,83.5
2022-12-15T07:39:24.357Z,83.2
2022-12-15T07:41:24.929Z,83.3
2022-12-15T07:43:24.131Z,83.3
2022-12-15T07:44:24.524Z,83.3
2022-12-15T07:45:24.876Z,83.2
2022-12-15T07:47:24.479Z,83.1
2022-12-15T07:48:24.196Z,83.3
2022-12-15T07:49:24.131Z,83.3
2022-12-15T07:51:24.261Z,83.8
2022-12-15T07:52:24.263Z,84
2022-12-15T07:54:24.443Z,83.9
2022-12-15T07:55:50.089Z,83.9
2022-12-15T07:56:24.135Z,83.9
2022-12-15T07:57:23.017Z,83.7
2022-12-15T07:59:24.132Z,83.6
2022-12-15T08:00:24.133Z,83.7
2022-12-15T08:02:24.479Z,84.1
2022-12-15T08:04:24.138Z,83.9
2022-12-15T08:05:24.464Z,83.8
2022-12-15T08:06:24.648Z,83.8
2022-12-15T08:07:24.134Z,84.1
2022-12-15T08:09:23.028Z,84
2022-12-15T08:10:24.620Z,83.9
2022-12-15T08:12:24.141Z,83.9
2022-12-15T08:15:24.172Z,84.3
2022-12-15T08:16:24.934Z,84.2
2022-12-15T08:17:24.171Z,84.3
2022-12-15T08:18:24.154Z,84
2022-12-15T08:19:25.047Z,84
2022-12-15T08:21:24.838Z,84.3
2022-12-15T08:23:24.509Z,84.4
2022-12-15T08:25:24.958Z,84.4
2022-12-15T08:26:29.982Z,84.3
2022-12-15T08:27:24.170Z,84.2
2022-12-15T08:28:24.151Z,84.1
2022-12-15T08:29:50.153Z,84.3
2022-12-15T08:30:24.149Z,84.4
2022-12-15T08:31:24.223Z,84.4
2022-12-15T08:32:24.212Z,84.8
2022-12-15T08:33:24.682Z,84.6
2022-12-15T08:34:23.501Z,84.4
2022-12-15T08:36:24.164Z,84.8
2022-12-15T08:37:24.951Z,84.8
2022-12-15T08:38:24.160Z,84.7
2022-12-15T08:39:24.166Z,84.6
2022-12-15T08:40:23.011Z,84.7
2022-12-15T08:41:24.507Z,84.7
2022-12-15T08:42:24.766Z,84.7
2022-12-15T08:44:24.165Z,84.6
2022-12-15T08:46:24.529Z,84.4
2022-12-15T08:47:24.783Z,84.4
2022-12-15T08:51:24.312Z,84.4
2022-12-15T08:52:24.740Z,84.9
2022-12-15T08:55:24.698Z,81
2022-12-15T08:56:24.155Z,79
2022-12-15T08:57:24.203Z,76.6
2022-12-15T08:59:24.245Z,72.9
2022-12-15T09:02:24.252Z,68.2
2022-12-15T09:03:24.629Z,67.1
2022-12-15T09:05:24.165Z,65.2
2022-12-15T09:06:24.154Z,64.6
2022-12-15T09:08:25.426Z,63.8
2022-12-15T09:10:24.408Z,62.8
2022-12-15T09:11:24.182Z,62.2
2022-12-15T09:15:45.376Z,62.7
2022-12-15T09:16:24.209Z,63.1
2022-12-15T09:18:24.147Z,64.5
2022-12-15T09:19:24.167Z,64.7
2022-12-15T09:21:24.146Z,65.5
2022-12-15T09:23:24.149Z,65.9
2022-12-15T09:25:24.934Z,66.6
2022-12-15T09:26:24.149Z,67.3
2022-12-15T09:27:24.491Z,67.2
2022-12-15T09:28:24.956Z,67.3
2022-12-15T09:29:24.487Z,67.6
2022-12-15T09:33:24.151Z,68.4
2022-12-15T09:34:24.149Z,69
2022-12-15T09:37:24.935Z,70.3
2022-12-15T09:38:24.642Z,70.5
2022-12-15T09:39:24.716Z,70.8
2022-12-15T09:40:24.353Z,71.9
2022-12-15T09:41:24.164Z,72.1
2022-12-15T09:46:24.583Z,72.8
2022-12-15T09:47:24.164Z,72.9
2022-12-15T09:48:24.170Z,73
2022-12-15T09:49:24.150Z,73.4
2022-12-15T09:50:24.625Z,73.4
2022-12-15T09:51:25.091Z,73.9
2022-12-15T09:52:24.907Z,73.9
2022-12-15T09:53:53.800Z,73.6
2022-12-15T09:55:24.271Z,73.8
2022-12-15T09:58:24.157Z,74.6
2022-12-15T09:59:24.292Z,74.8
2022-12-15T10:00:24.290Z,75
2022-12-15T10:01:24.935Z,75.1
2022-12-15T10:03:24.314Z,76.1
2022-12-15T10:06:31.332Z,76.6
2022-12-15T10:07:24.210Z,76.6
2022-12-15T10:08:24.515Z,76.7
2022-12-15T10:09:24.918Z,76.7
2022-12-15T10:11:24.147Z,76.9
2022-12-15T10:12:24.231Z,77
2022-12-15T10:13:23.028Z,77.2
2022-12-15T10:14:24.805Z,77.3
2022-12-15T10:15:24.152Z,78
2022-12-15T10:16:24.650Z,78
2022-12-15T10:19:24.161Z,78.3
2022-12-15T10:20:24.176Z,78.5
2022-12-15T10:21:24.168Z,78.7
2022-12-15T10:22:24.601Z,100
2022-12-15T10:23:24.245Z,93.6
2022-12-15T10:25:07.387Z,88.2
2022-12-15T10:26:24.163Z,75.3
2022-12-15T10:28:24.162Z,75.2
2022-12-15T10:29:25.179Z,75.5
2022-12-15T10:30:24.321Z,75.4
2022-12-15T10:31:24.638Z,75.3
2022-12-15T10:32:24.565Z,75.7
2022-12-15T10:34:24.686Z,77.3
2022-12-15T10:35:24.783Z,78
2022-12-15T10:39:24.868Z,78.7
2022-12-15T10:40:24.190Z,79.2
2022-12-15T10:41:24.160Z,79.3
2022-12-15T10:42:24.148Z,79.5
2022-12-15T10:43:24.163Z,79.6
2022-12-15T10:44:30.308Z,79.6
2022-12-15T10:47:24.162Z,79.9
2022-12-15T10:48:24.691Z,80
2022-12-15T10:49:24.154Z,80.3
2022-12-15T10:51:24.166Z,80.6
2022-12-15T10:52:25.032Z,80.7
2022-12-15T10:53:24.700Z,81
2022-12-15T10:54:24.692Z,81.1
2022-12-15T10:55:24.161Z,81.3
2022-12-15T10:56:30.597Z,81
2022-12-15T11:00:24.170Z,80.5
2022-12-15T11:01:24.417Z,80.3
2022-12-15T11:03:24.330Z,80.2
2022-12-15T11:04:23.221Z,80.4
2022-12-15T11:05:24.170Z,80.3
2022-12-15T11:06:24.459Z,80.5
2022-12-15T11:08:23.071Z,80.9
2022-12-15T11:09:24.153Z,81
2022-12-15T11:10:24.969Z,81.1
2022-12-15T11:13:27.344Z,81.9
2022-12-15T11:14:24.826Z,82
2022-12-15T11:15:24.179Z,81.9
2022-12-15T11:16:24.953Z,81.9
2022-12-15T11:17:25.042Z,82.1
2022-12-15T11:18:24.164Z,82.1
2022-12-15T11:20:24.665Z,82.6
2022-12-15T11:21:24.157Z,82.3
2022-12-15T11:22:24.720Z,82.5
2022-12-15T11:23:25.031Z,82.4
2022-12-15T11:24:24.959Z,82.5
2022-12-15T11:26:24.810Z,82.5
2022-12-15T11:27:24.205Z,82.3
2022-12-15T11:28:24.532Z,82.1
2022-12-15T11:29:24.266Z,82
2022-12-15T11:31:24.182Z,81.9
2022-12-15T11:32:24.193Z,81.8
2022-12-15T11:33:24.210Z,81.7
2022-12-15T11:34:25.011Z,81.7
2022-12-15T11:35:24.191Z,81.7
2022-12-15T11:36:24.337Z,81.7
2022-12-15T11:39:25.104Z,82.1
2022-12-15T11:40:24.185Z,81.9
2022-12-15T11:41:24.588Z,81.8
2022-12-15T11:43:24.577Z,81.4
2022-12-15T11:45:23.055Z,81.1
2022-12-15T11:47:23.051Z,80.8
2022-12-15T11:48:24.946Z,80.9
2022-12-15T11:49:24.165Z,80.8
2022-12-15T11:52:24.716Z,80.4
2022-12-15T11:53:24.185Z,80.3
2022-12-15T11:54:24.167Z,80
2022-12-15T11:55:31.111Z,80.2
2022-12-15T11:56:23.041Z,80.6
2022-12-15T11:57:25.225Z,80.4
2022-12-15T11:58:24.233Z,80.4
2022-12-15T12:00:24.198Z,80.4
2022-12-15T12:01:24.776Z,80.4
2022-12-15T12:02:24.292Z,80.2
2022-12-15T12:04:24.744Z,79.8
2022-12-15T12:05:24.531Z,79.9
2022-12-15T12:06:24.176Z,79.7
2022-12-15T12:08:24.794Z,79.5
2022-12-15T12:09:24.159Z,91.1
2022-12-15T12:10:24.203Z,97.6
2022-12-15T12:13:24.601Z,81.6
2022-12-15T12:14:24.182Z,80.9
2022-12-15T12:16:24.684Z,78.3
2022-12-15T12:17:23.069Z,76.3
2022-12-15T12:19:24.314Z,76.3
2022-12-15T12:21:24.951Z,77.1
2022-12-15T12:22:24.863Z,77.1
2022-12-15T12:23:24.173Z,77.4
2022-12-15T12:24:24.482Z,77.9
2022-12-15T12:25:25.081Z,78.5
2022-12-15T12:26:24.192Z,78.6
2022-12-15T12:27:24.925Z,78.9
2022-12-15T12:29:24.611Z,78.9
2022-12-15T12:30:24.321Z,79
2022-12-15T12:32:24.752Z,79.1
2022-12-15T12:33:24.784Z,79
2022-12-15T12:34:24.979Z,79.1
2022-12-15T12:37:24.640Z,79
2022-12-15T12:38:24.748Z,78.9
2022-12-15T12:39:23.055Z,78.9
2022-12-15T12:40:23.051Z,79
2022-12-15T12:42:24.751Z,79.1
2022-12-15T12:43:24.735Z,78.8
2022-12-15T12:45:24.910Z,78.8
2022-12-15T12:46:24.164Z,78.7
2022-12-15T12:47:24.794Z,78.5
2022-12-15T12:48:24.756Z,78.6
2022-12-15T12:51:24.693Z,78.4
2022-12-15T12:54:24.808Z,78.6
2022-12-15T12:55:24.991Z,78.6
2022-12-15T12:56:24.657Z,78.8
2022-12-15T12:57:24.194Z,79
2022-12-15T12:59:24.192Z,79.8
2022-12-15T13:00:24.747Z,79.8
2022-12-15T13:03:23.044Z,80.2
2022-12-15T13:04:24.179Z,80.1
2022-12-15T13:06:24.935Z,80
2022-12-15T13:07:24.169Z,79.8
2022-12-15T13:08:24.753Z,79.7
2022-12-15T13:09:24.196Z,79.9
2022-12-15T13:11:24.320Z,79.9
2022-12-15T13:12:50.489Z,80
2022-12-15T13:13:24.887Z,80
2022-12-15T13:16:23.071Z,79.8
2022-12-15T13:17:26.936Z,79.8
2022-12-15T13:18:24.167Z,79.9
2022-12-15T13:19:24.233Z,79.9
2022-12-15T13:20:24.180Z,79.8
2022-12-15T13:21:24.651Z,79.9
2022-12-15T13:24:23.089Z,80
2022-12-15T13:25:24.195Z,80
2022-12-15T13:26:24.178Z,80
2022-12-15T13:29:24.748Z,79.7
2022-12-15T13:30:24.307Z,79.9
2022-12-15T13:33:24.199Z,89.2
2022-12-15T13:34:23.067Z,100
2022-12-15T13:35:24.785Z,95.4
2022-12-15T13:36:24.576Z,81.7
2022-12-15T13:37:25.252Z,79.3
2022-12-15T13:39:24.196Z,71.9
2022-12-15T13:40:24.248Z,71.8
2022-12-15T13:42:34.305Z,72.7
2022-12-15T13:43:24.758Z,84.3
2022-12-15T13:46:24.932Z,75.2
2022-12-15T13:47:24.175Z,82.5
2022-12-15T13:49:23.127Z,69.9
2022-12-15T13:55:28.138Z,72.5
2022-12-15T13:56:24.196Z,72.9
2022-12-15T13:59:24.181Z,74.8
2022-12-15T14:00:24.185Z,75.2
2022-12-15T14:01:28.664Z,75.6
2022-12-15T14:03:24.309Z,76.3
2022-12-15T14:04:24.205Z,76.7
2022-12-15T14:05:24.190Z,77
2022-12-15T14:07:24.850Z,77.6
2022-12-15T14:08:24.204Z,77.6
2022-12-15T14:09:24.197Z,77.8
2022-12-15T14:11:51.159Z,78
2022-12-15T14:12:24.185Z,78.3
2022-12-15T14:13:25.099Z,78.3
2022-12-15T14:15:24.181Z,78
2022-12-15T14:16:24.225Z,77.9
2022-12-15T14:17:24.221Z,78.1
2022-12-15T14:21:24.195Z,79.4
2022-12-15T14:22:28.562Z,79.6
2022-12-15T14:23:24.183Z,79.6
2022-12-15T14:25:24.934Z,79.6
2022-12-15T14:26:24.398Z,79.4
2022-12-15T14:28:24.208Z,79.3
2022-12-15T14:29:24.199Z,79.3
2022-12-15T14:30:24.180Z,79.4
2022-12-15T14:33:28.194Z,79.7
2022-12-15T14:34:24.694Z,79.5
2022-12-15T14:35:24.191Z,79.3
2022-12-15T14:37:24.187Z,79
2022-12-15T14:39:24.187Z,78.7
2022-12-15T14:41:24.182Z,79
2022-12-15T14:42:24.796Z,79
2022-12-15T14:43:24.206Z,79.2
2022-12-15T14:45:24.255Z,79.3
2022-12-15T14:47:24.206Z,79.4
2022-12-15T14:48:40.895Z,79.6
2022-12-15T14:49:24.735Z,79.8
2022-12-15T14:50:25.311Z,79.8
2022-12-15T14:51:24.214Z,79.8
2022-12-15T14:53:24.460Z,80.1
2022-12-15T14:54:24.193Z,80
2022-12-15T14:55:24.285Z,80.1
2022-12-15T14:56:30.035Z,80.3
2022-12-15T14:57:24.200Z,80.2
2022-12-15T14:58:24.194Z,80.2
2022-12-15T15:00:24.179Z,80.2
2022-12-15T15:01:24.718Z,80.1
2022-12-15T15:02:24.303Z,80.1
2022-12-15T15:03:09.281Z,79.1
2022-12-15T15:04:23.083Z,80.3
2022-12-15T15:06:24.186Z,80.5
2022-12-15T15:08:24.881Z,80.5
2022-12-15T15:09:24.831Z,80.6
2022-12-15T15:10:24.217Z,80.7
2022-12-15T15:11:24.202Z,80.7
2022-12-15T15:12:24.889Z,80.6
2022-12-15T15:16:23.202Z,81.2
2022-12-15T15:17:23.090Z,81.1
2022-12-15T15:18:24.199Z,81.1
2022-12-15T15:19:24.293Z,80.7
2022-12-15T15:21:24.200Z,80.8
2022-12-15T15:23:24.638Z,80.8
2022-12-15T15:24:24.831Z,81
2022-12-15T15:25:24.202Z,81
2022-12-15T15:26:24.187Z,80.8
2022-12-15T15:27:24.310Z,81
2022-12-15T15:29:24.189Z,80.8
2022-12-15T15:30:24.185Z,80.9
2022-12-15T15:31:24.507Z,80.9
2022-12-15T15:32:24.180Z,81
2022-12-15T15:33:25.085Z,81.1
2022-12-15T15:36:24.633Z,81.1
2022-12-15T15:37:24.190Z,81.1
2022-12-15T15:38:24.186Z,81.3
2022-12-15T15:40:25.054Z,81.3
2022-12-15T15:41:24.192Z,81.3
2022-12-15T15:42:29.270Z,81.1
2022-12-15T15:43:24.196Z,81
2022-12-15T15:44:24.695Z,81
2022-12-15T15:45:24.211Z,81.2
2022-12-15T15:46:24.797Z,81.1
2022-12-15T15:49:23.069Z,81.3
2022-12-15T15:50:24.474Z,81.4
2022-12-15T15:51:24.388Z,81.3
2022-12-15T15:52:24.220Z,81.4
2022-12-15T15:53:24.322Z,81.6
2022-12-15T15:54:24.197Z,82.1
2022-12-15T15:56:24.723Z,82.1
2022-12-15T15:58:31.904Z,82
2022-12-15T16:01:24.939Z,81.7
2022-12-15T16:02:24.504Z,81.5
2022-12-15T16:03:24.482Z,81.5
2022-12-15T16:04:23.068Z,81.3
2022-12-15T16:05:24.205Z,81.4
2022-12-15T16:06:24.792Z,81.2
2022-12-15T16:07:24.206Z,81.1
2022-12-15T16:11:24.382Z,81.3
2022-12-15T16:12:24.201Z,81.3
2022-12-15T16:13:26.548Z,81.2
2022-12-15T16:14:24.789Z,81.4
2022-12-15T16:17:24.197Z,81.6
2022-12-15T16:18:24.632Z,81.6
2022-12-15T16:19:24.198Z,81.5
2022-12-15T16:20:24.933Z,81.2
2022-12-15T16:22:24.205Z,81.1
2022-12-15T16:24:24.734Z,81.1
2022-12-15T16:25:24.427Z,80.9
2022-12-15T16:26:24.670Z,81.1
2022-12-15T16:27:24.808Z,80.9
2022-12-15T16:28:24.502Z,80.8
2022-12-15T16:30:24.568Z,81.2
2022-12-15T16:31:24.282Z,81
2022-12-15T16:33:24.838Z,80.7
2022-12-15T16:34:24.726Z,80.8
2022-12-15T16:35:24.195Z,80.5
2022-12-15T16:38:24.384Z,81
2022-12-15T16:40:23.089Z,81.3
2022-12-15T16:41:23.105Z,81.1
2022-12-15T16:43:24.364Z,81.2
2022-12-15T16:44:27.657Z,81.2
2022-12-15T16:45:24.773Z,81.2
2022-12-15T16:46:24.318Z,81
2022-12-15T16:47:24.575Z,81.1
2022-12-15T16:49:24.228Z,81.1
2022-12-15T16:50:24.898Z,81.1
2022-12-15T16:51:24.196Z,81.1
2022-12-15T16:52:23.073Z,80.6
2022-12-15T16:54:24.743Z,80.5
2022-12-15T16:56:24.496Z,80.2
2022-12-15T16:57:24.212Z,80.1
2022-12-15T16:58:24.217Z,80.3
2022-12-15T16:59:33.215Z,80.3
2022-12-15T17:00:24.216Z,80.4
2022-12-15T17:02:26.474Z,80.7
2022-12-15T17:04:24.851Z,81
2022-12-15T17:05:24.678Z,80.8
2022-12-15T17:06:24.211Z,80.6
2022-12-15T17:07:24.229Z,80.7
2022-12-15T17:08:25.049Z,80.6
2022-12-15T17:10:24.620Z,81
2022-12-15T17:11:24.516Z,80.7
2022-12-15T17:12:24.987Z,80.6
2022-12-15T17:13:27.479Z,81
2022-12-15T17:15:24.639Z,81
2022-12-15T17:17:24.681Z,80.8
2022-12-15T17:18:24.211Z,80.9
2022-12-15T17:19:24.699Z,80.8
2022-12-15T17:20:29.469Z,81.1
2022-12-15T17:21:24.405Z,81.3
2022-12-15T17:24:23.110Z,81
2022-12-15T17:25:53.413Z,80.9
2022-12-15T17:27:24.211Z,81.2
2022-12-15T17:28:24.212Z,81
2022-12-15T17:29:24.722Z,81
2022-12-15T17:30:24.743Z,80.8
2022-12-15T17:31:24.259Z,80.7
2022-12-15T17:32:24.332Z,80.9
2022-12-15T17:34:24.537Z,80.9
2022-12-15T17:36:24.191Z,80.7
2022-12-15T17:38:24.196Z,80.8
2022-12-15T17:39:24.210Z,80.7
2022-12-15T17:40:24.792Z,80.6
2022-12-15T17:42:24.503Z,80.7
2022-12-15T17:43:24.398Z,80.7
2022-12-15T17:44:34.333Z,80.9
2022-12-15T17:47:23.068Z,81.1
2022-12-15T17:48:24.234Z,80.7
2022-12-15T17:50:24.797Z,80.6
2022-12-15T17:51:24.619Z,80.4
2022-12-15T17:52:24.673Z,80.6
2022-12-15T17:53:24.207Z,80.4
2022-12-15T17:55:26.250Z,80.3
2022-12-15T17:56:24.535Z,80.1
2022-12-15T17:57:24.934Z,80.2
2022-12-15T17:59:24.918Z,80
2022-12-15T18:00:24.198Z,80
2022-12-15T18:03:24.519Z,80.1
2022-12-15T18:04:24.290Z,80.3
2022-12-15T18:07:24.659Z,80.6
2022-12-15T18:08:24.718Z,80.3
2022-12-15T18:09:24.807Z,80.3
2022-12-15T18:10:25.220Z,81
2022-12-15T18:11:24.194Z,81
2022-12-15T18:12:24.833Z,81
2022-12-15T18:13:24.198Z,81.4
2022-12-15T18:14:24.199Z,81.8
2022-12-15T18:16:24.630Z,81.4
2022-12-15T18:17:24.621Z,81.7
2022-12-15T18:18:24.199Z,81.4
2022-12-15T18:20:24.227Z,81.7
2022-12-15T18:21:25.383Z,81.4
2022-12-15T18:24:24.211Z,81.1
2022-12-15T18:25:24.324Z,81.5
2022-12-15T18:26:24.710Z,81.4
2022-12-15T18:28:24.866Z,81.9
2022-12-15T18:31:24.521Z,81.3
2022-12-15T18:32:24.395Z,81.6
2022-12-15T18:33:25.128Z,81.5
2022-12-15T18:35:24.197Z,81.5
2022-12-15T18:37:25.195Z,80.9
2022-12-15T18:38:25.179Z,81.1
2022-12-15T18:41:23.076Z,80.7
2022-12-15T18:42:24.196Z,81
2022-12-15T18:45:28.025Z,82.6
2022-12-15T18:46:24.245Z,83.2
2022-12-15T18:48:24.211Z,84.3
2022-12-15T18:49:24.706Z,84
2022-12-15T18:50:24.219Z,84.1